sensor_id;sensor_type;location;lat;lon;timestamp;temperature;humidity
298;DHT22;133;49.626;9.680;2023-05-07T00:00:21;15.20;86.80
298;DHT22;133;49.626;9.680;2023-05-07T00:02:48;15.20;86.90
298;DHT22;133;49.626;9.680;2023-05-07T00:05:14;15.10;86.90
298;DHT22;133;49.626;9.680;2023-05-07T00:07:39;15.00;87.00
298;DHT22;133;49.626;9.680;2023-05-07T00:10:06;14.90;87.10
298;DHT22;133;49.626;9.680;2023-05-07T00:12:32;14.80;87.30
298;DHT22;133;49.626;9.680;2023-05-07T00:15:02;14.90;87.10
298;DHT22;133;49.626;9.680;2023-05-07T00:17:29;14.80;87.70
298;DHT22;133;49.626;9.680;2023-05-07T00:19:54;14.80;87.80
298;DHT22;133;49.626;9.680;2023-05-07T00:22:20;14.80;87.90
298;DHT22;133;49.626;9.680;2023-05-07T00:24:46;14.80;87.70
298;DHT22;133;49.626;9.680;2023-05-07T00:27:12;14.80;87.80
298;DHT22;133;49.626;9.680;2023-05-07T00:29:37;14.70;87.80
298;DHT22;133;49.626;9.680;2023-05-07T00:32:03;14.70;87.90
298;DHT22;133;49.626;9.680;2023-05-07T00:34:29;14.70;87.90
298;DHT22;133;49.626;9.680;2023-05-07T00:36:54;14.70;87.90
298;DHT22;133;49.626;9.680;2023-05-07T00:39:20;14.70;88.10
298;DHT22;133;49.626;9.680;2023-05-07T00:41:46;14.60;88.40
298;DHT22;133;49.626;9.680;2023-05-07T00:44:13;14.60;88.40
298;DHT22;133;49.626;9.680;2023-05-07T00:46:38;14.50;88.60
298;DHT22;133;49.626;9.680;2023-05-07T00:49:04;14.40;88.60
298;DHT22;133;49.626;9.680;2023-05-07T00:51:30;14.40;88.90
298;DHT22;133;49.626;9.680;2023-05-07T00:53:56;14.30;89.50
298;DHT22;133;49.626;9.680;2023-05-07T00:56:22;14.30;89.50
298;DHT22;133;49.626;9.680;2023-05-07T00:58:48;14.30;89.60
298;DHT22;133;49.626;9.680;2023-05-07T01:01:14;14.20;89.80
298;DHT22;133;49.626;9.680;2023-05-07T01:03:42;14.10;89.80
298;DHT22;133;49.626;9.680;2023-05-07T01:06:08;14.10;90.10
298;DHT22;133;49.626;9.680;2023-05-07T01:08:35;14.00;90.20
298;DHT22;133;49.626;9.680;2023-05-07T01:11:01;14.00;90.20
298;DHT22;133;49.626;9.680;2023-05-07T01:13:27;14.00;90.20
298;DHT22;133;49.626;9.680;2023-05-07T01:15:53;14.00;90.20
298;DHT22;133;49.626;9.680;2023-05-07T01:18:19;14.00;90.30
298;DHT22;133;49.626;9.680;2023-05-07T01:20:45;14.00;90.30
298;DHT22;133;49.626;9.680;2023-05-07T01:23:11;13.90;90.20
298;DHT22;133;49.626;9.680;2023-05-07T01:25:37;13.90;90.40
298;DHT22;133;49.626;9.680;2023-05-07T01:28:03;13.90;90.70
298;DHT22;133;49.626;9.680;2023-05-07T01:30:29;13.80;90.60
298;DHT22;133;49.626;9.680;2023-05-07T01:33:11;13.90;90.50
298;DHT22;133;49.626;9.680;2023-05-07T01:35:41;13.80;90.30
298;DHT22;133;49.626;9.680;2023-05-07T01:38:08;13.80;90.40
298;DHT22;133;49.626;9.680;2023-05-07T01:40:34;13.70;90.40
298;DHT22;133;49.626;9.680;2023-05-07T01:43:01;13.60;90.40
298;DHT22;133;49.626;9.680;2023-05-07T01:45:27;13.60;90.70
298;DHT22;133;49.626;9.680;2023-05-07T01:47:54;13.60;90.90
298;DHT22;133;49.626;9.680;2023-05-07T01:50:20;13.50;91.00
298;DHT22;133;49.626;9.680;2023-05-07T01:52:49;13.50;91.40
298;DHT22;133;49.626;9.680;2023-05-07T01:55:15;13.50;91.60
298;DHT22;133;49.626;9.680;2023-05-07T01:57:41;13.50;91.50
298;DHT22;133;49.626;9.680;2023-05-07T02:00:07;13.50;91.50
298;DHT22;133;49.626;9.680;2023-05-07T02:02:34;13.50;91.50
298;DHT22;133;49.626;9.680;2023-05-07T02:05:00;13.50;91.60
298;DHT22;133;49.626;9.680;2023-05-07T02:07:27;13.50;91.60
298;DHT22;133;49.626;9.680;2023-05-07T02:09:53;13.60;91.40
298;DHT22;133;49.626;9.680;2023-05-07T02:12:20;13.60;91.30
298;DHT22;133;49.626;9.680;2023-05-07T02:14:46;13.60;91.40
298;DHT22;133;49.626;9.680;2023-05-07T02:17:12;13.60;91.20
298;DHT22;133;49.626;9.680;2023-05-07T02:19:37;13.60;91.00
298;DHT22;133;49.626;9.680;2023-05-07T02:22:03;13.70;90.90
298;DHT22;133;49.626;9.680;2023-05-07T02:24:28;13.60;91.00
298;DHT22;133;49.626;9.680;2023-05-07T02:26:54;13.60;91.10
298;DHT22;133;49.626;9.680;2023-05-07T02:29:19;13.60;91.20
298;DHT22;133;49.626;9.680;2023-05-07T02:31:45;13.60;91.00
298;DHT22;133;49.626;9.680;2023-05-07T02:34:11;13.60;91.10
298;DHT22;133;49.626;9.680;2023-05-07T02:36:36;13.60;90.90
298;DHT22;133;49.626;9.680;2023-05-07T02:39:02;13.60;91.00
298;DHT22;133;49.626;9.680;2023-05-07T02:41:28;13.60;91.10
298;DHT22;133;49.626;9.680;2023-05-07T02:43:53;13.60;91.20
298;DHT22;133;49.626;9.680;2023-05-07T02:46:19;13.60;91.30
298;DHT22;133;49.626;9.680;2023-05-07T02:48:45;13.60;91.40
298;DHT22;133;49.626;9.680;2023-05-07T02:51:10;13.60;91.40
298;DHT22;133;49.626;9.680;2023-05-07T02:53:36;13.60;91.30
298;DHT22;133;49.626;9.680;2023-05-07T02:56:02;13.60;91.30
298;DHT22;133;49.626;9.680;2023-05-07T02:58:27;13.60;91.40
298;DHT22;133;49.626;9.680;2023-05-07T03:00:54;13.60;91.50
298;DHT22;133;49.626;9.680;2023-05-07T03:03:22;13.60;91.50
298;DHT22;133;49.626;9.680;2023-05-07T03:05:47;13.60;91.50
298;DHT22;133;49.626;9.680;2023-05-07T03:08:13;13.50;91.60
298;DHT22;133;49.626;9.680;2023-05-07T03:10:39;13.50;91.70
298;DHT22;133;49.626;9.680;2023-05-07T03:13:05;13.50;91.60
298;DHT22;133;49.626;9.680;2023-05-07T03:15:31;13.50;91.70
298;DHT22;133;49.626;9.680;2023-05-07T03:17:56;13.50;91.60
298;DHT22;133;49.626;9.680;2023-05-07T03:20:22;13.40;91.80
298;DHT22;133;49.626;9.680;2023-05-07T03:22:47;13.40;92.00
298;DHT22;133;49.626;9.680;2023-05-07T03:25:13;13.30;92.40
298;DHT22;133;49.626;9.680;2023-05-07T03:27:40;13.30;92.20
298;DHT22;133;49.626;9.680;2023-05-07T03:30:07;13.30;92.30
298;DHT22;133;49.626;9.680;2023-05-07T03:32:34;13.30;92.60
298;DHT22;133;49.626;9.680;2023-05-07T03:35:00;13.20;92.50
298;DHT22;133;49.626;9.680;2023-05-07T03:37:26;13.20;93.00
298;DHT22;133;49.626;9.680;2023-05-07T03:39:51;13.30;92.80
298;DHT22;133;49.626;9.680;2023-05-07T03:42:17;13.20;92.60
298;DHT22;133;49.626;9.680;2023-05-07T03:44:43;13.30;92.60
298;DHT22;133;49.626;9.680;2023-05-07T03:47:08;13.30;92.50
298;DHT22;133;49.626;9.680;2023-05-07T03:49:35;13.20;92.70
298;DHT22;133;49.626;9.680;2023-05-07T03:52:01;13.20;92.60
298;DHT22;133;49.626;9.680;2023-05-07T03:54:26;13.30;92.20
298;DHT22;133;49.626;9.680;2023-05-07T03:56:52;13.20;92.30
298;DHT22;133;49.626;9.680;2023-05-07T03:59:18;13.30;92.30
298;DHT22;133;49.626;9.680;2023-05-07T04:01:43;13.20;92.40
298;DHT22;133;49.626;9.680;2023-05-07T04:04:09;13.20;92.30
298;DHT22;133;49.626;9.680;2023-05-07T04:06:34;13.20;92.40
298;DHT22;133;49.626;9.680;2023-05-07T04:09:00;13.20;92.30
298;DHT22;133;49.626;9.680;2023-05-07T04:11:26;13.20;92.40
298;DHT22;133;49.626;9.680;2023-05-07T04:13:51;13.20;92.30
298;DHT22;133;49.626;9.680;2023-05-07T04:16:17;13.20;92.30
298;DHT22;133;49.626;9.680;2023-05-07T04:18:43;13.20;92.40
298;DHT22;133;49.626;9.680;2023-05-07T04:21:19;13.20;92.30
298;DHT22;133;49.626;9.680;2023-05-07T04:23:49;13.20;92.50
298;DHT22;133;49.626;9.680;2023-05-07T04:26:15;13.10;92.80
298;DHT22;133;49.626;9.680;2023-05-07T04:28:41;13.10;93.00
298;DHT22;133;49.626;9.680;2023-05-07T04:31:07;13.20;93.00
298;DHT22;133;49.626;9.680;2023-05-07T04:33:33;13.20;93.00
298;DHT22;133;49.626;9.680;2023-05-07T04:36:01;13.30;93.00
298;DHT22;133;49.626;9.680;2023-05-07T04:38:29;13.30;93.00
298;DHT22;133;49.626;9.680;2023-05-07T04:40:55;13.30;92.90
298;DHT22;133;49.626;9.680;2023-05-07T04:43:22;13.40;92.80
298;DHT22;133;49.626;9.680;2023-05-07T04:45:47;13.40;92.60
298;DHT22;133;49.626;9.680;2023-05-07T04:48:14;13.50;92.50
298;DHT22;133;49.626;9.680;2023-05-07T04:50:40;13.50;92.60
298;DHT22;133;49.626;9.680;2023-05-07T04:53:06;13.60;92.50
298;DHT22;133;49.626;9.680;2023-05-07T04:55:32;13.60;92.20
298;DHT22;133;49.626;9.680;2023-05-07T04:57:57;13.60;92.00
298;DHT22;133;49.626;9.680;2023-05-07T05:00:23;13.60;91.80
298;DHT22;133;49.626;9.680;2023-05-07T05:02:49;13.70;91.70
298;DHT22;133;49.626;9.680;2023-05-07T05:05:14;13.60;91.80
298;DHT22;133;49.626;9.680;2023-05-07T05:07:40;13.70;91.90
298;DHT22;133;49.626;9.680;2023-05-07T05:10:06;13.70;92.20
298;DHT22;133;49.626;9.680;2023-05-07T05:12:31;13.80;92.10
298;DHT22;133;49.626;9.680;2023-05-07T05:14:57;13.80;92.10
298;DHT22;133;49.626;9.680;2023-05-07T05:17:23;13.90;92.00
298;DHT22;133;49.626;9.680;2023-05-07T05:19:48;13.90;91.20
298;DHT22;133;49.626;9.680;2023-05-07T05:22:14;14.00;91.50
298;DHT22;133;49.626;9.680;2023-05-07T05:24:39;14.10;91.50
298;DHT22;133;49.626;9.680;2023-05-07T05:27:05;14.20;91.30
298;DHT22;133;49.626;9.680;2023-05-07T05:29:30;14.30;90.90
298;DHT22;133;49.626;9.680;2023-05-07T05:31:57;14.30;90.00
298;DHT22;133;49.626;9.680;2023-05-07T05:34:22;14.40;90.00
298;DHT22;133;49.626;9.680;2023-05-07T05:36:48;14.40;90.30
298;DHT22;133;49.626;9.680;2023-05-07T05:39:14;14.40;90.30
298;DHT22;133;49.626;9.680;2023-05-07T05:41:40;14.40;89.70
298;DHT22;133;49.626;9.680;2023-05-07T05:44:06;14.40;89.80
298;DHT22;133;49.626;9.680;2023-05-07T05:46:31;14.50;90.40
298;DHT22;133;49.626;9.680;2023-05-07T05:48:57;14.50;90.30
298;DHT22;133;49.626;9.680;2023-05-07T05:51:23;14.70;89.70
298;DHT22;133;49.626;9.680;2023-05-07T05:53:48;14.80;89.50
298;DHT22;133;49.626;9.680;2023-05-07T05:56:15;14.90;89.60
298;DHT22;133;49.626;9.680;2023-05-07T05:58:41;15.00;87.80
298;DHT22;133;49.626;9.680;2023-05-07T06:01:07;15.10;87.20
298;DHT22;133;49.626;9.680;2023-05-07T06:03:33;15.10;87.30
298;DHT22;133;49.626;9.680;2023-05-07T06:05:58;15.10;87.60
298;DHT22;133;49.626;9.680;2023-05-07T06:08:29;15.10;87.50
298;DHT22;133;49.626;9.680;2023-05-07T06:10:55;15.20;87.80
298;DHT22;133;49.626;9.680;2023-05-07T06:13:21;15.30;87.80
298;DHT22;133;49.626;9.680;2023-05-07T06:15:46;15.30;87.90
298;DHT22;133;49.626;9.680;2023-05-07T06:18:12;15.40;87.80
298;DHT22;133;49.626;9.680;2023-05-07T06:20:37;15.50;87.40
298;DHT22;133;49.626;9.680;2023-05-07T06:23:03;15.60;87.50
298;DHT22;133;49.626;9.680;2023-05-07T06:25:29;15.70;87.60
298;DHT22;133;49.626;9.680;2023-05-07T06:27:54;15.80;87.10
298;DHT22;133;49.626;9.680;2023-05-07T06:30:20;15.90;86.90
298;DHT22;133;49.626;9.680;2023-05-07T06:32:45;16.00;86.60
298;DHT22;133;49.626;9.680;2023-05-07T06:35:11;16.20;86.00
298;DHT22;133;49.626;9.680;2023-05-07T06:37:37;16.30;85.80
298;DHT22;133;49.626;9.680;2023-05-07T06:40:05;16.40;85.60
298;DHT22;133;49.626;9.680;2023-05-07T06:42:32;16.40;84.10
298;DHT22;133;49.626;9.680;2023-05-07T06:44:58;16.40;84.60
298;DHT22;133;49.626;9.680;2023-05-07T06:47:23;16.50;84.50
298;DHT22;133;49.626;9.680;2023-05-07T06:49:49;16.50;84.50
298;DHT22;133;49.626;9.680;2023-05-07T06:52:15;16.60;84.50
298;DHT22;133;49.626;9.680;2023-05-07T06:54:40;16.80;84.20
298;DHT22;133;49.626;9.680;2023-05-07T06:57:06;17.00;83.70
298;DHT22;133;49.626;9.680;2023-05-07T06:59:32;17.20;83.70
298;DHT22;133;49.626;9.680;2023-05-07T07:01:58;17.40;83.10
298;DHT22;133;49.626;9.680;2023-05-07T07:04:23;17.50;81.80
298;DHT22;133;49.626;9.680;2023-05-07T07:06:49;17.60;81.10
298;DHT22;133;49.626;9.680;2023-05-07T07:09:16;17.70;80.40
298;DHT22;133;49.626;9.680;2023-05-07T07:11:42;17.80;80.10
298;DHT22;133;49.626;9.680;2023-05-07T07:14:08;17.90;80.00
298;DHT22;133;49.626;9.680;2023-05-07T07:16:33;18.10;79.60
298;DHT22;133;49.626;9.680;2023-05-07T07:18:59;18.10;78.70
298;DHT22;133;49.626;9.680;2023-05-07T07:21:25;18.30;78.50
298;DHT22;133;49.626;9.680;2023-05-07T07:23:50;18.40;78.30
298;DHT22;133;49.626;9.680;2023-05-07T07:26:17;18.50;78.40
298;DHT22;133;49.626;9.680;2023-05-07T07:28:44;18.70;77.30
298;DHT22;133;49.626;9.680;2023-05-07T07:31:10;18.80;77.10
298;DHT22;133;49.626;9.680;2023-05-07T07:33:36;18.90;76.90
298;DHT22;133;49.626;9.680;2023-05-07T07:36:02;19.00;76.60
298;DHT22;133;49.626;9.680;2023-05-07T07:38:27;19.10;76.00
298;DHT22;133;49.626;9.680;2023-05-07T07:40:53;19.10;76.30
298;DHT22;133;49.626;9.680;2023-05-07T07:43:19;19.10;76.20
298;DHT22;133;49.626;9.680;2023-05-07T07:45:44;19.30;76.30
298;DHT22;133;49.626;9.680;2023-05-07T07:48:11;19.40;75.80
298;DHT22;133;49.626;9.680;2023-05-07T07:50:37;19.50;75.50
298;DHT22;133;49.626;9.680;2023-05-07T07:53:03;19.50;75.20
298;DHT22;133;49.626;9.680;2023-05-07T07:55:28;19.60;75.40
298;DHT22;133;49.626;9.680;2023-05-07T07:57:54;19.80;75.20
298;DHT22;133;49.626;9.680;2023-05-07T08:00:20;19.90;74.50
298;DHT22;133;49.626;9.680;2023-05-07T08:02:46;20.10;74.30
298;DHT22;133;49.626;9.680;2023-05-07T08:05:12;20.30;74.30
298;DHT22;133;49.626;9.680;2023-05-07T08:07:37;20.40;73.10
298;DHT22;133;49.626;9.680;2023-05-07T08:10:03;20.40;73.30
298;DHT22;133;49.626;9.680;2023-05-07T08:12:29;20.40;72.90
298;DHT22;133;49.626;9.680;2023-05-07T08:14:55;20.30;73.60
298;DHT22;133;49.626;9.680;2023-05-07T08:17:21;20.30;73.60
298;DHT22;133;49.626;9.680;2023-05-07T08:19:48;20.40;73.30
298;DHT22;133;49.626;9.680;2023-05-07T08:22:13;20.50;73.30
298;DHT22;133;49.626;9.680;2023-05-07T08:24:39;20.70;73.10
298;DHT22;133;49.626;9.680;2023-05-07T08:27:05;20.90;72.80
298;DHT22;133;49.626;9.680;2023-05-07T08:29:31;20.90;72.10
298;DHT22;133;49.626;9.680;2023-05-07T08:31:56;21.00;71.80
298;DHT22;133;49.626;9.680;2023-05-07T08:34:22;21.00;71.60
298;DHT22;133;49.626;9.680;2023-05-07T08:36:48;21.00;71.80
298;DHT22;133;49.626;9.680;2023-05-07T08:39:15;21.00;72.00
298;DHT22;133;49.626;9.680;2023-05-07T08:41:44;21.10;72.60
298;DHT22;133;49.626;9.680;2023-05-07T08:44:14;21.00;73.00
298;DHT22;133;49.626;9.680;2023-05-07T08:46:42;21.00;72.40
298;DHT22;133;49.626;9.680;2023-05-07T08:49:09;21.20;72.80
298;DHT22;133;49.626;9.680;2023-05-07T08:51:35;21.40;72.00
298;DHT22;133;49.626;9.680;2023-05-07T08:54:01;21.60;71.00
298;DHT22;133;49.626;9.680;2023-05-07T08:56:27;21.80;70.80
298;DHT22;133;49.626;9.680;2023-05-07T08:58:53;21.90;70.10
298;DHT22;133;49.626;9.680;2023-05-07T09:01:22;22.10;70.10
298;DHT22;133;49.626;9.680;2023-05-07T09:03:47;22.40;69.70
298;DHT22;133;49.626;9.680;2023-05-07T09:06:13;22.90;68.80
298;DHT22;133;49.626;9.680;2023-05-07T09:08:39;23.20;67.10
298;DHT22;133;49.626;9.680;2023-05-07T09:11:05;23.40;66.80
298;DHT22;133;49.626;9.680;2023-05-07T09:13:30;23.70;66.50
298;DHT22;133;49.626;9.680;2023-05-07T09:15:56;24.00;65.90
298;DHT22;133;49.626;9.680;2023-05-07T09:18:24;24.10;64.90
298;DHT22;133;49.626;9.680;2023-05-07T09:20:51;24.20;65.80
298;DHT22;133;49.626;9.680;2023-05-07T09:23:16;24.40;65.00
298;DHT22;133;49.626;9.680;2023-05-07T09:25:42;24.70;64.50
298;DHT22;133;49.626;9.680;2023-05-07T09:28:10;25.10;63.90
298;DHT22;133;49.626;9.680;2023-05-07T09:30:36;25.00;62.40
298;DHT22;133;49.626;9.680;2023-05-07T09:33:03;25.30;62.90
298;DHT22;133;49.626;9.680;2023-05-07T09:35:30;25.30;62.90
298;DHT22;133;49.626;9.680;2023-05-07T09:37:59;26.00;61.40
298;DHT22;133;49.626;9.680;2023-05-07T09:40:27;27.10;59.70
298;DHT22;133;49.626;9.680;2023-05-07T09:42:54;27.90;58.20
298;DHT22;133;49.626;9.680;2023-05-07T09:45:27;28.40;56.60
298;DHT22;133;49.626;9.680;2023-05-07T09:47:57;28.60;56.50
298;DHT22;133;49.626;9.680;2023-05-07T09:50:32;28.90;56.20
298;DHT22;133;49.626;9.680;2023-05-07T09:52:58;29.00;55.60
298;DHT22;133;49.626;9.680;2023-05-07T09:55:24;29.20;55.80
298;DHT22;133;49.626;9.680;2023-05-07T09:57:52;29.50;55.00
298;DHT22;133;49.626;9.680;2023-05-07T10:00:22;29.50;54.70
298;DHT22;133;49.626;9.680;2023-05-07T10:02:49;29.50;54.70
298;DHT22;133;49.626;9.680;2023-05-07T10:05:18;29.30;54.50
298;DHT22;133;49.626;9.680;2023-05-07T10:07:44;29.40;54.70
298;DHT22;133;49.626;9.680;2023-05-07T10:10:10;29.50;55.00
298;DHT22;133;49.626;9.680;2023-05-07T10:12:36;29.20;55.30
298;DHT22;133;49.626;9.680;2023-05-07T10:15:10;29.10;54.40
298;DHT22;133;49.626;9.680;2023-05-07T10:17:38;28.90;55.20
298;DHT22;133;49.626;9.680;2023-05-07T10:20:04;28.60;56.30
298;DHT22;133;49.626;9.680;2023-05-07T10:22:34;28.70;56.00
298;DHT22;133;49.626;9.680;2023-05-07T10:25:02;28.60;55.90
298;DHT22;133;49.626;9.680;2023-05-07T10:27:29;28.40;56.10
298;DHT22;133;49.626;9.680;2023-05-07T10:30:11;27.80;57.10
298;DHT22;133;49.626;9.680;2023-05-07T10:32:50;27.30;58.40
298;DHT22;133;49.626;9.680;2023-05-07T10:35:21;27.40;58.70
298;DHT22;133;49.626;9.680;2023-05-07T10:37:48;27.30;59.30
298;DHT22;133;49.626;9.680;2023-05-07T10:40:14;27.90;58.30
298;DHT22;133;49.626;9.680;2023-05-07T10:42:53;28.20;57.40
298;DHT22;133;49.626;9.680;2023-05-07T10:45:20;28.30;57.30
298;DHT22;133;49.626;9.680;2023-05-07T10:48:07;28.90;55.80
298;DHT22;133;49.626;9.680;2023-05-07T10:50:34;29.40;54.20
298;DHT22;133;49.626;9.680;2023-05-07T10:53:21;29.60;53.30
298;DHT22;133;49.626;9.680;2023-05-07T10:55:49;29.40;54.00
298;DHT22;133;49.626;9.680;2023-05-07T11:00:48;30.20;53.10
298;DHT22;133;49.626;9.680;2023-05-07T11:03:14;30.20;53.80
298;DHT22;133;49.626;9.680;2023-05-07T11:05:41;30.10;52.80
298;DHT22;133;49.626;9.680;2023-05-07T11:08:07;30.10;53.10
298;DHT22;133;49.626;9.680;2023-05-07T11:10:51;29.70;53.70
298;DHT22;133;49.626;9.680;2023-05-07T11:13:18;29.60;54.00
298;DHT22;133;49.626;9.680;2023-05-07T11:15:48;29.50;54.70
298;DHT22;133;49.626;9.680;2023-05-07T11:18:16;29.50;54.70
298;DHT22;133;49.626;9.680;2023-05-07T11:20:56;29.60;54.30
298;DHT22;133;49.626;9.680;2023-05-07T11:26:08;30.70;53.70
298;DHT22;133;49.626;9.680;2023-05-07T11:28:41;31.30;51.70
298;DHT22;133;49.626;9.680;2023-05-07T11:31:08;31.80;51.10
298;DHT22;133;49.626;9.680;2023-05-07T11:33:34;32.40;50.20
298;DHT22;133;49.626;9.680;2023-05-07T11:36:02;32.60;49.80
298;DHT22;133;49.626;9.680;2023-05-07T11:38:29;32.50;49.70
298;DHT22;133;49.626;9.680;2023-05-07T11:40:57;32.80;49.40
298;DHT22;133;49.626;9.680;2023-05-07T11:43:22;32.90;49.10
298;DHT22;133;49.626;9.680;2023-05-07T11:45:51;32.70;49.20
298;DHT22;133;49.626;9.680;2023-05-07T11:48:17;32.80;48.80
298;DHT22;133;49.626;9.680;2023-05-07T11:53:35;33.70;48.00
298;DHT22;133;49.626;9.680;2023-05-07T11:56:05;33.70;47.70
298;DHT22;133;49.626;9.680;2023-05-07T11:58:34;33.90;47.30
298;DHT22;133;49.626;9.680;2023-05-07T12:01:00;33.90;47.10
298;DHT22;133;49.626;9.680;2023-05-07T12:03:26;34.00;47.10
298;DHT22;133;49.626;9.680;2023-05-07T12:05:51;33.50;47.30
298;DHT22;133;49.626;9.680;2023-05-07T12:08:18;33.10;48.50
298;DHT22;133;49.626;9.680;2023-05-07T12:10:44;32.40;48.30
298;DHT22;133;49.626;9.680;2023-05-07T12:13:25;32.40;47.70
298;DHT22;133;49.626;9.680;2023-05-07T12:15:52;32.20;47.80
298;DHT22;133;49.626;9.680;2023-05-07T12:18:18;32.00;48.40
298;DHT22;133;49.626;9.680;2023-05-07T12:20:44;32.60;46.90
298;DHT22;133;49.626;9.680;2023-05-07T12:23:11;33.00;45.80
298;DHT22;133;49.626;9.680;2023-05-07T12:25:40;33.20;46.20
298;DHT22;133;49.626;9.680;2023-05-07T12:28:16;33.30;47.00
298;DHT22;133;49.626;9.680;2023-05-07T12:30:43;34.20;45.60
298;DHT22;133;49.626;9.680;2023-05-07T12:33:10;34.00;44.20
298;DHT22;133;49.626;9.680;2023-05-07T12:35:42;34.10;44.50
298;DHT22;133;49.626;9.680;2023-05-07T12:38:16;34.30;44.30
298;DHT22;133;49.626;9.680;2023-05-07T12:40:50;34.40;44.20
298;DHT22;133;49.626;9.680;2023-05-07T12:43:27;34.60;44.90
298;DHT22;133;49.626;9.680;2023-05-07T12:45:56;34.40;44.90
298;DHT22;133;49.626;9.680;2023-05-07T12:48:22;34.20;46.00
298;DHT22;133;49.626;9.680;2023-05-07T12:50:55;34.00;45.90
298;DHT22;133;49.626;9.680;2023-05-07T12:53:23;33.60;44.50
298;DHT22;133;49.626;9.680;2023-05-07T12:55:51;33.50;43.90
298;DHT22;133;49.626;9.680;2023-05-07T12:58:31;33.70;43.80
298;DHT22;133;49.626;9.680;2023-05-07T13:01:00;34.20;43.30
298;DHT22;133;49.626;9.680;2023-05-07T13:03:32;33.90;44.40
298;DHT22;133;49.626;9.680;2023-05-07T13:05:59;33.90;44.40
298;DHT22;133;49.626;9.680;2023-05-07T13:10:51;34.20;42.80
298;DHT22;133;49.626;9.680;2023-05-07T13:13:17;34.40;42.80
298;DHT22;133;49.626;9.680;2023-05-07T13:15:42;34.60;44.20
298;DHT22;133;49.626;9.680;2023-05-07T13:18:08;34.80;43.70
298;DHT22;133;49.626;9.680;2023-05-07T13:20:35;35.30;42.30
298;DHT22;133;49.626;9.680;2023-05-07T13:23:01;35.30;42.30
298;DHT22;133;49.626;9.680;2023-05-07T13:25:27;35.00;42.90
298;DHT22;133;49.626;9.680;2023-05-07T13:27:53;35.00;41.40
298;DHT22;133;49.626;9.680;2023-05-07T13:30:18;35.10;42.30
298;DHT22;133;49.626;9.680;2023-05-07T13:32:44;34.90;43.00
298;DHT22;133;49.626;9.680;2023-05-07T13:35:10;34.80;42.90
298;DHT22;133;49.626;9.680;2023-05-07T13:37:36;34.50;43.10
298;DHT22;133;49.626;9.680;2023-05-07T13:40:02;34.40;43.20
298;DHT22;133;49.626;9.680;2023-05-07T13:42:28;34.60;42.90
298;DHT22;133;49.626;9.680;2023-05-07T13:44:53;34.20;42.70
298;DHT22;133;49.626;9.680;2023-05-07T13:47:19;33.90;42.60
298;DHT22;133;49.626;9.680;2023-05-07T13:49:45;33.20;43.90
298;DHT22;133;49.626;9.680;2023-05-07T13:52:10;33.00;44.20
298;DHT22;133;49.626;9.680;2023-05-07T13:54:36;32.90;45.10
298;DHT22;133;49.626;9.680;2023-05-07T13:57:02;32.10;44.80
298;DHT22;133;49.626;9.680;2023-05-07T13:59:27;31.80;44.90
298;DHT22;133;49.626;9.680;2023-05-07T14:01:53;31.60;45.10
298;DHT22;133;49.626;9.680;2023-05-07T14:04:20;31.70;45.10
298;DHT22;133;49.626;9.680;2023-05-07T14:06:45;31.60;45.50
298;DHT22;133;49.626;9.680;2023-05-07T14:09:11;31.70;45.40
298;DHT22;133;49.626;9.680;2023-05-07T14:11:38;31.60;46.00
298;DHT22;133;49.626;9.680;2023-05-07T14:14:05;31.40;46.10
298;DHT22;133;49.626;9.680;2023-05-07T14:16:30;31.40;46.80
298;DHT22;133;49.626;9.680;2023-05-07T14:18:56;31.30;46.60
298;DHT22;133;49.626;9.680;2023-05-07T14:21:22;31.30;46.20
298;DHT22;133;49.626;9.680;2023-05-07T14:23:47;31.40;45.70
298;DHT22;133;49.626;9.680;2023-05-07T14:26:21;31.00;47.90
298;DHT22;133;49.626;9.680;2023-05-07T14:28:48;31.00;47.60
298;DHT22;133;49.626;9.680;2023-05-07T14:31:13;30.80;47.20
298;DHT22;133;49.626;9.680;2023-05-07T14:33:39;30.20;48.00
298;DHT22;133;49.626;9.680;2023-05-07T14:36:05;30.00;48.40
298;DHT22;133;49.626;9.680;2023-05-07T14:38:30;29.90;48.60
298;DHT22;133;49.626;9.680;2023-05-07T14:40:58;30.00;48.80
298;DHT22;133;49.626;9.680;2023-05-07T14:43:24;30.00;47.70
298;DHT22;133;49.626;9.680;2023-05-07T14:45:49;29.90;48.90
298;DHT22;133;49.626;9.680;2023-05-07T14:48:15;29.60;48.40
298;DHT22;133;49.626;9.680;2023-05-07T14:50:42;29.50;48.70
298;DHT22;133;49.626;9.680;2023-05-07T14:53:07;29.30;48.50
298;DHT22;133;49.626;9.680;2023-05-07T14:55:34;28.90;49.70
298;DHT22;133;49.626;9.680;2023-05-07T14:58:00;28.50;50.80
298;DHT22;133;49.626;9.680;2023-05-07T15:00:26;28.00;51.00
298;DHT22;133;49.626;9.680;2023-05-07T15:02:52;27.80;50.80
298;DHT22;133;49.626;9.680;2023-05-07T15:05:17;27.60;51.80
298;DHT22;133;49.626;9.680;2023-05-07T15:07:44;27.50;52.00
298;DHT22;133;49.626;9.680;2023-05-07T15:10:10;27.30;52.20
298;DHT22;133;49.626;9.680;2023-05-07T15:12:36;27.20;52.70
298;DHT22;133;49.626;9.680;2023-05-07T15:15:02;27.10;53.20
298;DHT22;133;49.626;9.680;2023-05-07T15:17:28;27.00;53.70
298;DHT22;133;49.626;9.680;2023-05-07T15:19:53;26.80;53.50
298;DHT22;133;49.626;9.680;2023-05-07T15:22:19;26.60;53.40
298;DHT22;133;49.626;9.680;2023-05-07T15:24:46;26.50;53.50
298;DHT22;133;49.626;9.680;2023-05-07T15:27:12;26.20;54.10
298;DHT22;133;49.626;9.680;2023-05-07T15:29:37;26.10;54.40
298;DHT22;133;49.626;9.680;2023-05-07T15:32:03;26.00;54.60
298;DHT22;133;49.626;9.680;2023-05-07T15:34:29;25.90;55.40
298;DHT22;133;49.626;9.680;2023-05-07T15:36:56;25.70;55.40
298;DHT22;133;49.626;9.680;2023-05-07T15:39:24;25.70;55.50
298;DHT22;133;49.626;9.680;2023-05-07T15:41:50;25.50;55.80
298;DHT22;133;49.626;9.680;2023-05-07T15:44:15;25.40;55.90
298;DHT22;133;49.626;9.680;2023-05-07T15:46:41;25.30;56.00
298;DHT22;133;49.626;9.680;2023-05-07T15:49:07;25.20;56.50
298;DHT22;133;49.626;9.680;2023-05-07T15:51:34;25.10;56.80
298;DHT22;133;49.626;9.680;2023-05-07T15:54:00;25.00;56.80
298;DHT22;133;49.626;9.680;2023-05-07T15:56:26;24.90;57.40
298;DHT22;133;49.626;9.680;2023-05-07T15:58:52;24.80;57.60
298;DHT22;133;49.626;9.680;2023-05-07T16:01:18;24.60;58.20
298;DHT22;133;49.626;9.680;2023-05-07T16:03:43;24.60;58.50
298;DHT22;133;49.626;9.680;2023-05-07T16:06:09;24.60;58.90
298;DHT22;133;49.626;9.680;2023-05-07T16:08:38;24.50;59.00
298;DHT22;133;49.626;9.680;2023-05-07T16:11:05;24.50;59.70
298;DHT22;133;49.626;9.680;2023-05-07T16:13:30;24.30;60.10
298;DHT22;133;49.626;9.680;2023-05-07T16:15:58;24.20;60.60
298;DHT22;133;49.626;9.680;2023-05-07T16:18:24;24.20;61.20
298;DHT22;133;49.626;9.680;2023-05-07T16:20:49;24.00;61.50
298;DHT22;133;49.626;9.680;2023-05-07T16:23:15;23.90;61.70
298;DHT22;133;49.626;9.680;2023-05-07T16:25:41;23.80;62.90
298;DHT22;133;49.626;9.680;2023-05-07T16:28:07;23.70;63.30
298;DHT22;133;49.626;9.680;2023-05-07T16:30:33;23.50;63.70
298;DHT22;133;49.626;9.680;2023-05-07T16:32:59;22.90;66.70
298;DHT22;133;49.626;9.680;2023-05-07T16:35:24;22.20;70.10
298;DHT22;133;49.626;9.680;2023-05-07T16:37:50;21.70;72.10
298;DHT22;133;49.626;9.680;2023-05-07T16:40:16;21.20;73.60